Time;durP1;ratioP1;P1;durP2;ratioP2;P2;SDS_P1;SDS_P2;PMS_P1;PMS_P2;Temp;Humidity;BMP_temperature;BMP_pressure;BME280_temperature;BME280_humidity;BME280_pressure;Samples;Min_cycle;Max_cycle;Signal;HPM_P1;HPM_P2
2023/08/16 00:02:20;;;;;;;3.63;3.25;;;;;;;;;;4945786;29;20051;-92
2023/08/16 00:04:47;;;;;;;4.03;2.70;;;;;;;;;;4958588;29;20038;-92
2023/08/16 00:07:14;;;;;;;5.65;4.43;;;;;;;;;;4969262;28;20047;-91
2023/08/16 00:09:44;;;;;;;5.50;3.35;;;;;;;;;;4956817;29;20051;-91
2023/08/16 00:12:11;;;;;;;3.47;3.05;;;;;;;;;;4965398;28;20048;-92
2023/08/16 00:14:39;;;;;;;3.30;3.00;;;;;;;;;;4965530;29;20027;-91
2023/08/16 00:17:08;;;;;;;5.53;3.20;;;;;;;;;;4941231;29;20035;-92
2023/08/16 00:19:38;;;;;;;5.03;3.28;;;;;;;;;;4970614;29;20043;-92
2023/08/16 00:22:05;;;;;;;5.00;3.28;;;;;;;;;;4961952;29;20042;-92
2023/08/16 00:24:33;;;;;;;6.68;3.33;;;;;;;;;;4956054;28;20055;-91
2023/08/16 00:27:03;;;;;;;6.57;3.97;;;;;;;;;;4948076;29;20066;-92
2023/08/16 00:29:30;;;;;;;4.15;3.53;;;;;;;;;;4965342;28;20038;-92
2023/08/16 00:32:00;;;;;;;6.03;3.65;;;;;;;;;;4943451;29;20041;-92
2023/08/16 00:34:31;;;;;;;7.70;3.00;;;;;;;;;;4951327;29;20052;-91
2023/08/16 00:36:59;;;;;;;5.72;3.50;;;;;;;;;;4925747;29;20649;-91
2023/08/16 00:39:31;;;;;;;6.03;4.00;;;;;;;;;;4951636;28;20042;-91
2023/08/16 00:41:59;;;;;;;6.07;3.75;;;;;;;;;;4968539;28;20041;-91
2023/08/16 00:44:27;;;;;;;8.68;3.58;;;;;;;;;;4960780;28;20023;-89
2023/08/16 00:46:55;;;;;;;10.98;3.40;;;;;;;;;;4950693;28;20055;-92
2023/08/16 00:49:26;;;;;;;8.65;3.33;;;;;;;;;;4939588;28;20308;-92
2023/08/16 00:51:57;;;;;;;4.00;3.47;;;;;;;;;;4958710;28;20034;-92
2023/08/16 00:54:24;;;;;;;5.57;3.25;;;;;;;;;;4940737;28;20045;-91
2023/08/16 00:56:52;;;;;;;4.25;3.88;;;;;;;;;;4944567;29;20044;-91
2023/08/16 00:59:20;;;;;;;6.63;3.88;;;;;;;;;;4943170;28;20033;-92
2023/08/16 01:01:48;;;;;;;7.90;3.67;;;;;;;;;;4963653;28;20045;-91
2023/08/16 01:04:17;;;;;;;6.38;3.42;;;;;;;;;;4955820;28;20042;-91
2023/08/16 01:06:45;;;;;;;4.93;4.20;;;;;;;;;;4948346;29;20031;-92
2023/08/16 01:09:14;;;;;;;5.70;3.20;;;;;;;;;;4976914;28;20286;-91
2023/08/16 01:11:45;;;;;;;9.40;3.72;;;;;;;;;;4955052;28;20062;-91
2023/08/16 01:14:16;;;;;;;;;;;;;;;;;;4949011;28;20027;-91
2023/08/16 01:16:44;;;;;;;4.40;3.80;;;;;;;;;;4974617;28;19922;-91
2023/08/16 01:19:11;;;;;;;5.10;3.35;;;;;;;;;;4945369;29;20026;-90
2023/08/16 01:21:44;;;;;;;8.75;3.45;;;;;;;;;;4949435;29;20028;-92
2023/08/16 01:24:19;;;;;;;6.22;3.78;;;;;;;;;;4978040;28;20027;-91
2023/08/16 01:26:48;;;;;;;5.80;4.95;;;;;;;;;;4957940;28;20143;-91
2023/08/16 01:29:16;;;;;;;3.92;3.53;;;;;;;;;;4956482;28;20019;-91
2023/08/16 01:31:46;;;;;;;4.25;3.67;;;;;;;;;;4960560;28;20043;-91
2023/08/16 01:34:15;;;;;;;5.75;3.38;;;;;;;;;;4974628;29;20056;-92
2023/08/16 01:36:45;;;;;;;5.45;2.97;;;;;;;;;;4971205;29;20063;-91
2023/08/16 01:39:14;;;;;;;10.27;3.38;;;;;;;;;;4940588;29;20051;-92
2023/08/16 01:41:45;;;;;;;4.32;3.28;;;;;;;;;;4960143;28;20065;-92
2023/08/16 01:44:14;;;;;;;4.22;3.20;;;;;;;;;;4951976;28;20049;-91
2023/08/16 01:46:42;;;;;;;5.63;3.10;;;;;;;;;;4967258;29;20051;-92
2023/08/16 01:49:10;;;;;;;7.65;3.42;;;;;;;;;;4959065;29;20327;-92
2023/08/16 01:51:40;;;;;;;6.32;3.63;;;;;;;;;;4963944;28;20036;-91
2023/08/16 01:54:07;;;;;;;7.05;3.22;;;;;;;;;;4952907;28;20043;-92
2023/08/16 01:56:35;;;;;;;4.15;3.72;;;;;;;;;;4944422;29;20039;-92
2023/08/16 01:59:02;;;;;;;4.22;3.10;;;;;;;;;;4951190;28;20031;-91
2023/08/16 02:01:31;;;;;;;4.70;3.50;;;;;;;;;;4935392;29;20051;-92
2023/08/16 02:04:01;;;;;;;4.78;3.65;;;;;;;;;;4955087;29;20631;-91
2023/08/16 02:06:37;;;;;;;4.13;3.47;;;;;;;;;;4946746;29;20034;-92
2023/08/16 02:09:04;;;;;;;;;;;;;;;;;;4943929;29;20425;-92
2023/08/16 02:11:32;;;;;;;5.10;3.28;;;;;;;;;;4973204;28;19927;-91
2023/08/16 02:13:59;;;;;;;5.35;3.80;;;;;;;;;;4928192;29;20042;-91
2023/08/16 02:16:34;;;;;;;5.95;3.88;;;;;;;;;;4952573;29;20043;-91
2023/08/16 02:19:01;;;;;;;10.27;3.65;;;;;;;;;;4934023;29;20164;-92
2023/08/16 02:21:29;;;;;;;4.68;3.47;;;;;;;;;;4956088;29;20048;-92
2023/08/16 02:23:56;;;;;;;4.15;2.92;;;;;;;;;;4952766;29;20042;-91
2023/08/16 02:26:26;;;;;;;3.40;3.10;;;;;;;;;;4934121;29;20036;-92
2023/08/16 02:28:57;;;;;;;4.03;3.08;;;;;;;;;;4975411;28;20025;-91
2023/08/16 02:31:27;;;;;;;5.40;3.42;;;;;;;;;;4974972;29;20054;-91
2023/08/16 02:33:57;;;;;;;5.00;3.08;;;;;;;;;;4974596;28;20057;-92
2023/08/16 02:36:26;;;;;;;3.90;3.47;;;;;;;;;;4956882;28;20047;-92
2023/08/16 02:38:54;;;;;;;5.70;4.00;;;;;;;;;;4969893;29;20041;-90
2023/08/16 02:41:23;;;;;;;7.70;3.95;;;;;;;;;;4941815;28;20038;-91
2023/08/16 02:43:55;;;;;;;4.35;2.88;;;;;;;;;;4969116;28;20059;-90
2023/08/16 02:46:22;;;;;;;9.15;3.25;;;;;;;;;;4944869;29;20027;-91
2023/08/16 02:48:52;;;;;;;7.90;3.47;;;;;;;;;;4952668;28;20047;-93
2023/08/16 02:51:23;;;;;;;3.78;3.10;;;;;;;;;;4958974;28;20139;-92
2023/08/16 02:53:50;;;;;;;3.55;2.75;;;;;;;;;;4948489;29;20050;-92
2023/08/16 02:56:18;;;;;;;4.32;3.50;;;;;;;;;;4966171;29;20023;-93
2023/08/16 02:58:45;;;;;;;3.65;2.85;;;;;;;;;;4934198;29;20047;-91
2023/08/16 03:01:14;;;;;;;11.65;3.55;;;;;;;;;;4953956;28;20071;-93
2023/08/16 03:03:42;;;;;;;7.63;3.60;;;;;;;;;;4961226;28;20058;-92
2023/08/16 03:06:17;;;;;;;4.13;3.25;;;;;;;;;;4961023;28;20035;-93
2023/08/16 03:08:46;;;;;;;7.70;4.10;;;;;;;;;;4961201;28;20054;-91
2023/08/16 03:11:13;;;;;;;7.25;4.22;;;;;;;;;;4962073;28;20027;-90
2023/08/16 03:13:40;;;;;;;6.68;4.05;;;;;;;;;;4959622;28;20047;-93
2023/08/16 03:16:08;;;;;;;6.82;3.92;;;;;;;;;;4969598;28;20051;-92
2023/08/16 03:18:35;;;;;;;3.90;3.17;;;;;;;;;;4940822;29;20051;-92
2023/08/16 03:21:03;;;;;;;6.65;3.28;;;;;;;;;;4936653;28;20032;-92
2023/08/16 03:23:32;;;;;;;5.50;4.38;;;;;;;;;;4958186;28;20524;-93
2023/08/16 03:26:01;;;;;;;5.82;3.05;;;;;;;;;;4969727;28;20059;-91
2023/08/16 03:28:29;;;;;;;4.35;3.08;;;;;;;;;;4965320;28;20028;-93
2023/08/16 03:30:56;;;;;;;5.35;3.10;;;;;;;;;;4957692;29;20047;-93
2023/08/16 03:33:24;;;;;;;12.45;5.15;;;;;;;;;;4933122;29;20043;-92
2023/08/16 03:35:55;;;;;;;15.23;4.30;;;;;;;;;;4942495;29;20061;-93
2023/08/16 03:38:23;;;;;;;5.50;3.58;;;;;;;;;;4956188;29;20046;-94
2023/08/16 03:40:53;;;;;;;8.48;3.85;;;;;;;;;;4947161;29;20043;-94
2023/08/16 03:43:22;;;;;;;7.55;3.42;;;;;;;;;;4955746;29;20053;-93
2023/08/16 03:45:50;;;;;;;3.55;3.22;;;;;;;;;;4937231;29;20066;-92
2023/08/16 03:48:17;;;;;;;6.95;3.45;;;;;;;;;;4943332;29;20051;-94
2023/08/16 03:50:47;;;;;;;7.18;4.38;;;;;;;;;;4937137;29;20056;-94
2023/08/16 03:53:15;;;;;;;10.30;3.65;;;;;;;;;;4954204;29;20057;-92
2023/08/16 03:55:42;;;;;;;13.73;4.00;;;;;;;;;;4973363;28;20070;-93
2023/08/16 03:58:09;;;;;;;6.00;3.40;;;;;;;;;;4971707;29;20036;-93
2023/08/16 04:00:40;;;;;;;6.13;4.03;;;;;;;;;;4956250;29;20053;-92
2023/08/16 04:03:07;;;;;;;5.40;3.53;;;;;;;;;;4936391;29;20057;-91
2023/08/16 04:05:35;;;;;;;6.10;3.95;;;;;;;;;;4966712;28;20051;-93
2023/08/16 04:08:06;;;;;;;8.40;4.22;;;;;;;;;;4937404;29;20058;-92
2023/08/16 04:10:37;;;;;;;7.00;5.13;;;;;;;;;;4944852;29;20058;-91
2023/08/16 04:13:04;;;;;;;6.32;3.80;;;;;;;;;;4961720;29;20051;-93
2023/08/16 04:15:35;;;;;;;3.70;3.17;;;;;;;;;;4936762;29;20039;-92
2023/08/16 04:18:05;;;;;;;8.90;3.83;;;;;;;;;;4939414;28;20053;-92
2023/08/16 04:20:32;;;;;;;8.18;3.50;;;;;;;;;;4921529;29;20060;-93
2023/08/16 04:23:00;;;;;;;3.63;3.33;;;;;;;;;;4950346;29;20051;-95
2023/08/16 04:25:27;;;;;;;4.65;3.30;;;;;;;;;;4969143;29;20058;-94
2023/08/16 04:27:57;;;;;;;5.55;4.35;;;;;;;;;;4933963;29;20048;-94
2023/08/16 04:30:30;;;;;;;8.83;4.17;;;;;;;;;;4945555;29;20027;-94
2023/08/16 04:32:59;;;;;;;3.20;2.90;;;;;;;;;;4948532;29;20066;-92
2023/08/16 04:35:29;;;;;;;5.45;3.85;;;;;;;;;;4958030;28;20044;-92
2023/08/16 04:37:59;;;;;;;9.98;4.45;;;;;;;;;;4954789;29;20039;-93
2023/08/16 04:40:29;;;;;;;4.30;3.05;;;;;;;;;;4958477;28;20035;-94
2023/08/16 04:42:57;;;;;;;7.75;4.47;;;;;;;;;;4966055;29;20055;-92
2023/08/16 04:45:24;;;;;;;4.03;3.63;;;;;;;;;;4951186;28;20047;-92
2023/08/16 04:47:54;;;;;;;10.15;5.57;;;;;;;;;;4926379;29;20157;-93
2023/08/16 04:50:22;;;;;;;7.85;4.28;;;;;;;;;;4936236;29;20036;-92
2023/08/16 04:52:51;;;;;;;4.72;4.28;;;;;;;;;;4930844;29;20047;-93
2023/08/16 04:55:22;;;;;;;6.00;4.35;;;;;;;;;;4929956;29;20035;-94
2023/08/16 04:57:50;;;;;;;5.22;4.25;;;;;;;;;;4953347;28;20063;-94
2023/08/16 05:00:20;;;;;;;5.18;3.70;;;;;;;;;;4935125;28;20086;-90
2023/08/16 05:02:56;;;;;;;8.20;4.63;;;;;;;;;;4938058;29;20051;-90
2023/08/16 05:05:25;;;;;;;4.85;3.90;;;;;;;;;;4935424;29;20054;-93
2023/08/16 05:07:54;;;;;;;5.50;3.75;;;;;;;;;;4940479;29;20050;-95
2023/08/16 05:10:23;;;;;;;5.78;3.65;;;;;;;;;;4917019;29;20047;-94
2023/08/16 05:12:54;;;;;;;4.53;4.05;;;;;;;;;;4912881;29;20052;-94
2023/08/16 05:15:21;;;;;;;9.32;4.75;;;;;;;;;;4918075;29;20058;-95
2023/08/16 05:17:48;;;;;;;8.73;3.97;;;;;;;;;;4934955;29;20052;-93
2023/08/16 05:20:16;;;;;;;5.35;3.97;;;;;;;;;;4936686;29;20047;-93
2023/08/16 05:22:43;;;;;;;4.82;4.32;;;;;;;;;;4931687;29;20048;-94
2023/08/16 05:25:12;;;;;;;7.35;4.40;;;;;;;;;;4942963;29;20058;-94
2023/08/16 05:27:42;;;;;;;4.32;3.88;;;;;;;;;;4923185;29;20058;-94
2023/08/16 05:30:10;;;;;;;8.73;3.75;;;;;;;;;;4941556;29;20059;-94
2023/08/16 05:32:38;;;;;;;5.05;4.05;;;;;;;;;;4939500;29;20048;-94
2023/08/16 05:35:05;;;;;;;5.90;3.88;;;;;;;;;;4939949;29;20060;-93
2023/08/16 05:37:33;;;;;;;4.00;2.95;;;;;;;;;;4949415;28;20054;-93
2023/08/16 05:40:05;;;;;;;3.97;3.20;;;;;;;;;;4945657;29;20098;-96
2023/08/16 05:42:34;;;;;;;3.38;2.58;;;;;;;;;;4939303;29;20047;-95
2023/08/16 05:45:01;;;;;;;3.33;2.65;;;;;;;;;;4963269;29;20047;-93
2023/08/16 05:47:31;;;;;;;3.38;2.63;;;;;;;;;;4952208;29;20052;-95
2023/08/16 05:49:59;;;;;;;5.65;2.88;;;;;;;;;;4934322;29;20458;-95
2023/08/16 05:52:26;;;;;;;4.32;3.53;;;;;;;;;;4955685;29;20051;-94
2023/08/16 05:54:57;;;;;;;4.30;2.85;;;;;;;;;;4951285;29;20059;-94
2023/08/16 05:57:24;;;;;;;3.83;2.72;;;;;;;;;;4941058;29;20047;-94
2023/08/16 05:59:53;;;;;;;5.40;2.90;;;;;;;;;;4937243;29;20231;-94
2023/08/16 06:02:23;;;;;;;9.57;2.72;;;;;;;;;;4960163;29;20046;-94
2023/08/16 06:04:52;;;;;;;5.10;3.25;;;;;;;;;;4951957;28;20059;-94
2023/08/16 06:07:21;;;;;;;3.80;2.67;;;;;;;;;;4936293;29;20051;-94
2023/08/16 06:09:50;;;;;;;3.88;2.28;;;;;;;;;;4920634;28;20047;-93
2023/08/16 06:12:18;;;;;;;4.35;2.63;;;;;;;;;;4938922;29;20050;-95
2023/08/16 06:14:54;;;;;;;2.90;2.50;;;;;;;;;;4924392;29;20067;-95
2023/08/16 06:17:21;;;;;;;3.45;2.55;;;;;;;;;;4948460;29;20054;-93
2023/08/16 06:19:49;;;;;;;3.72;3.30;;;;;;;;;;4948347;29;20042;-94
2023/08/16 06:22:16;;;;;;;4.85;3.15;;;;;;;;;;4922830;29;20443;-93
2023/08/16 06:24:43;;;;;;;4.43;2.60;;;;;;;;;;4930135;29;20051;-95
2023/08/16 06:27:11;;;;;;;3.30;2.60;;;;;;;;;;4928886;29;20055;-94
2023/08/16 06:29:43;;;;;;;2.88;2.50;;;;;;;;;;4933927;29;20130;-94
2023/08/16 06:32:12;;;;;;;2.28;2.08;;;;;;;;;;4947141;29;20048;-95
2023/08/16 06:34:39;;;;;;;2.22;1.90;;;;;;;;;;4938364;29;20046;-94
2023/08/16 06:37:09;;;;;;;3.08;2.78;;;;;;;;;;4935610;29;20047;-95
2023/08/16 06:39:36;;;;;;;3.55;2.15;;;;;;;;;;4938397;29;20058;-95
2023/08/16 06:42:04;;;;;;;2.83;2.60;;;;;;;;;;4933540;29;20043;-94
2023/08/16 06:44:32;;;;;;;3.10;1.88;;;;;;;;;;4935227;29;20043;-95
2023/08/16 06:47:00;;;;;;;4.22;2.25;;;;;;;;;;4936704;29;20055;-94
2023/08/16 06:49:30;;;;;;;2.72;2.42;;;;;;;;;;4950940;29;20058;-93
2023/08/16 06:52:00;;;;;;;2.42;2.10;;;;;;;;;;4944174;28;20051;-94
2023/08/16 06:54:28;;;;;;;5.07;2.50;;;;;;;;;;4942134;29;20055;-94
2023/08/16 06:56:57;;;;;;;3.25;1.98;;;;;;;;;;4962499;28;20056;-94
2023/08/16 06:59:25;;;;;;;2.50;2.25;;;;;;;;;;4965048;28;20054;-95
2023/08/16 07:01:52;;;;;;;1.67;1.58;;;;;;;;;;4956972;28;20039;-94
2023/08/16 07:04:20;;;;;;;4.00;3.03;;;;;;;;;;4939265;29;20051;-94
2023/08/16 07:06:48;;;;;;;2.00;1.67;;;;;;;;;;4947544;28;20050;-94
2023/08/16 07:09:16;;;;;;;3.42;2.20;;;;;;;;;;4963336;28;20131;-93
2023/08/16 07:11:43;;;;;;;3.80;2.65;;;;;;;;;;4947252;28;20058;-94
2023/08/16 07:14:11;;;;;;;2.72;2.20;;;;;;;;;;4939717;29;20055;-94
2023/08/16 07:16:39;;;;;;;2.58;2.22;;;;;;;;;;4969498;28;20041;-93
2023/08/16 07:19:09;;;;;;;2.40;2.20;;;;;;;;;;4972835;28;20043;-90
2023/08/16 07:21:37;;;;;;;2.42;2.20;;;;;;;;;;4947269;29;20487;-92
2023/08/16 07:24:08;;;;;;;2.75;2.30;;;;;;;;;;4949792;29;20621;-91
2023/08/16 07:26:37;;;;;;;2.63;2.25;;;;;;;;;;4929553;29;20058;-94
2023/08/16 07:29:04;;;;;;;2.15;1.95;;;;;;;;;;4930574;29;20058;-95
2023/08/16 07:31:32;;;;;;;4.13;2.80;;;;;;;;;;4953674;29;20050;-94
2023/08/16 07:33:59;;;;;;;3.03;2.13;;;;;;;;;;4936113;29;20054;-95
2023/08/16 07:36:27;;;;;;;4.82;2.45;;;;;;;;;;4926640;29;20047;-94
2023/08/16 07:38:55;;;;;;;3.83;2.13;;;;;;;;;;4931305;29;20047;-94
2023/08/16 07:41:23;;;;;;;7.38;2.80;;;;;;;;;;4920035;29;20059;-92
2023/08/16 07:43:52;;;;;;;3.38;2.35;;;;;;;;;;4929567;29;20047;-94
2023/08/16 07:46:19;;;;;;;4.32;2.58;;;;;;;;;;4956283;28;20055;-94
2023/08/16 07:49:26;;;;;;;3.90;2.65;;;;;;;;;;4947105;29;20054;-92
2023/08/16 07:51:54;;;;;;;3.92;2.65;;;;;;;;;;4954979;29;20050;-93
2023/08/16 07:54:24;;;;;;;4.55;2.50;;;;;;;;;;4929401;29;20062;-91
2023/08/16 07:56:53;;;;;;;2.33;2.10;;;;;;;;;;4943777;29;20043;-91
2023/08/16 07:59:20;;;;;;;2.60;2.40;;;;;;;;;;4961682;29;20421;-92
2023/08/16 08:01:51;;;;;;;2.33;2.10;;;;;;;;;;4944425;29;20070;-92
2023/08/16 08:04:19;;;;;;;3.28;2.97;;;;;;;;;;4943815;29;20051;-92
2023/08/16 08:06:47;;;;;;;2.90;2.55;;;;;;;;;;4943638;29;20074;-92
2023/08/16 08:09:17;;;;;;;4.88;3.00;;;;;;;;;;4927444;29;20051;-92
2023/08/16 08:11:44;;;;;;;3.28;2.90;;;;;;;;;;4948119;29;20051;-92
2023/08/16 08:14:13;;;;;;;4.50;2.42;;;;;;;;;;4964189;29;20051;-92
2023/08/16 08:16:40;;;;;;;4.75;2.95;;;;;;;;;;4929101;29;20054;-93
2023/08/16 08:19:10;;;;;;;4.25;3.85;;;;;;;;;;4944473;29;20522;-93
2023/08/16 08:21:37;;;;;;;4.40;2.83;;;;;;;;;;4944927;29;20214;-92
2023/08/16 08:24:05;;;;;;;5.13;3.30;;;;;;;;;;4945025;29;20055;-93
2023/08/16 08:26:35;;;;;;;3.03;2.70;;;;;;;;;;4944743;29;20052;-92
2023/08/16 08:29:05;;;;;;;2.92;2.50;;;;;;;;;;4946112;29;20055;-93
2023/08/16 08:31:36;;;;;;;3.15;2.85;;;;;;;;;;4962230;29;20044;-92
2023/08/16 08:34:06;;;;;;;4.05;3.05;;;;;;;;;;4953036;28;20055;-91
2023/08/16 08:36:33;;;;;;;4.82;3.05;;;;;;;;;;4948940;28;20065;-89
2023/08/16 08:39:00;;;;;;;2.60;2.40;;;;;;;;;;4958046;28;20047;-92
2023/08/16 08:41:32;;;;;;;3.22;2.60;;;;;;;;;;4932036;29;20058;-92
2023/08/16 08:44:00;;;;;;;2.70;2.47;;;;;;;;;;4930798;29;20055;-93
2023/08/16 08:46:29;;;;;;;4.82;2.95;;;;;;;;;;4946433;29;20536;-92
2023/08/16 08:49:00;;;;;;;5.45;3.08;;;;;;;;;;4938291;29;20050;-93
2023/08/16 08:51:30;;;;;;;3.30;2.97;;;;;;;;;;4930562;29;20059;-92
2023/08/16 08:53:57;;;;;;;5.00;3.28;;;;;;;;;;4938336;29;20054;-92
2023/08/16 08:56:28;;;;;;;2.35;2.15;;;;;;;;;;4964148;29;20046;-93
2023/08/16 08:58:57;;;;;;;2.72;2.53;;;;;;;;;;4942344;28;20042;-90
2023/08/16 09:01:25;;;;;;;2.92;2.55;;;;;;;;;;4963662;28;20062;-93
2023/08/16 09:03:54;;;;;;;4.80;2.42;;;;;;;;;;4961411;29;20047;-92
2023/08/16 09:06:26;;;;;;;4.18;2.50;;;;;;;;;;4943750;29;20422;-91
2023/08/16 09:08:53;;;;;;;2.17;1.98;;;;;;;;;;4928413;29;20051;-93
2023/08/16 09:11:21;;;;;;;2.58;2.30;;;;;;;;;;4943927;29;20050;-93
2023/08/16 09:13:48;;;;;;;2.83;2.63;;;;;;;;;;4942857;29;20055;-92
2023/08/16 09:16:16;;;;;;;5.22;2.58;;;;;;;;;;4943565;29;20050;-93
2023/08/16 09:18:47;;;;;;;2.95;2.55;;;;;;;;;;4959341;29;20514;-93
2023/08/16 09:21:16;;;;;;;4.47;2.90;;;;;;;;;;4945192;29;20054;-92
2023/08/16 09:23:44;;;;;;;3.20;2.72;;;;;;;;;;4928771;29;20456;-92
2023/08/16 09:26:17;;;;;;;3.60;2.72;;;;;;;;;;4942200;29;20066;-92
2023/08/16 09:28:45;;;;;;;3.38;2.65;;;;;;;;;;4959620;29;20414;-93
2023/08/16 09:31:12;;;;;;;2.92;2.63;;;;;;;;;;4960082;29;20058;-93
2023/08/16 09:33:41;;;;;;;7.05;3.10;;;;;;;;;;4942886;29;20051;-92
2023/08/16 09:36:09;;;;;;;4.03;2.63;;;;;;;;;;4941685;29;20062;-93
2023/08/16 09:38:41;;;;;;;8.25;3.00;;;;;;;;;;4943373;29;20445;-92
2023/08/16 09:41:16;;;;;;;4.80;2.90;;;;;;;;;;4963794;29;20055;-93
2023/08/16 09:43:46;;;;;;;3.05;2.78;;;;;;;;;;4945728;29;20529;-93
2023/08/16 09:46:17;;;;;;;6.80;2.75;;;;;;;;;;4942474;29;20043;-92
2023/08/16 09:48:45;;;;;;;3.28;3.00;;;;;;;;;;4944158;29;20070;-93
2023/08/16 09:51:13;;;;;;;2.65;2.20;;;;;;;;;;4960845;29;20062;-92
2023/08/16 09:53:47;;;;;;;2.97;2.65;;;;;;;;;;4943330;29;20059;-93
2023/08/16 09:56:20;;;;;;;2.38;2.17;;;;;;;;;;4959612;29;20055;-93
2023/08/16 09:58:48;;;;;;;3.13;2.00;;;;;;;;;;4942321;29;20055;-92
2023/08/16 10:01:16;;;;;;;3.30;2.53;;;;;;;;;;4943829;29;20550;-92
2023/08/16 10:03:44;;;;;;;3.30;2.20;;;;;;;;;;4941752;29;20529;-93
2023/08/16 10:06:16;;;;;;;4.43;2.53;;;;;;;;;;4927346;29;20051;-91
2023/08/16 10:08:44;;;;;;;2.30;1.83;;;;;;;;;;4925995;29;20051;-93
2023/08/16 10:11:11;;;;;;;4.43;2.60;;;;;;;;;;4944539;29;20043;-92
2023/08/16 10:13:43;;;;;;;3.97;2.55;;;;;;;;;;4971765;28;20039;-92
2023/08/16 10:16:11;;;;;;;2.60;2.00;;;;;;;;;;4958953;29;20059;-92
2023/08/16 10:18:43;;;;;;;2.72;1.90;;;;;;;;;;4942133;29;20051;-93
2023/08/16 10:21:12;;;;;;;4.03;1.83;;;;;;;;;;4942235;29;20062;-92
2023/08/16 10:23:42;;;;;;;;;;;;;;;;;;4950915;29;20047;-92
2023/08/16 10:26:14;;;;;;;2.78;2.47;;;;;;;;;;4918930;29;20397;-92
2023/08/16 10:28:46;;;;;;;3.72;2.45;;;;;;;;;;4940122;29;20051;-92
2023/08/16 10:31:18;;;;;;;3.40;2.20;;;;;;;;;;4959419;29;20047;-92
2023/08/16 10:33:48;;;;;;;2.47;2.28;;;;;;;;;;4944443;29;20051;-93
2023/08/16 10:36:18;;;;;;;;;;;;;;;;;;4943214;29;20044;-91
2023/08/16 10:38:45;;;;;;;3.90;2.38;;;;;;;;;;4961603;29;19929;-93
2023/08/16 10:41:16;;;;;;;2.97;2.47;;;;;;;;;;4962622;29;20059;-93
2023/08/16 10:43:49;;;;;;;4.30;2.35;;;;;;;;;;4941892;29;20054;-93
2023/08/16 10:46:29;;;;;;;3.20;2.65;;;;;;;;;;4933154;29;20058;-93
2023/08/16 10:49:00;;;;;;;2.75;2.47;;;;;;;;;;4944412;29;20047;-91
2023/08/16 10:51:27;;;;;;;2.35;2.15;;;;;;;;;;4943232;29;20062;-92
2023/08/16 10:53:56;;;;;;;3.05;2.22;;;;;;;;;;4959934;29;20042;-94
2023/08/16 10:56:24;;;;;;;5.72;2.25;;;;;;;;;;4945082;29;20689;-93
2023/08/16 10:58:53;;;;;;;2.20;1.73;;;;;;;;;;4941578;29;20055;-94
2023/08/16 11:01:32;;;;;;;3.50;1.88;;;;;;;;;;4943580;29;20050;-93
2023/08/16 11:04:01;;;;;;;3.20;2.85;;;;;;;;;;4943198;29;20059;-94
2023/08/16 11:06:32;;;;;;;2.80;2.38;;;;;;;;;;4945104;29;20043;-93
2023/08/16 11:09:02;;;;;;;5.30;1.90;;;;;;;;;;4959685;29;20067;-93
2023/08/16 11:11:31;;;;;;;;;;;;;;;;;;4960059;29;20043;-93
2023/08/16 11:14:01;;;;;;;2.42;2.00;;;;;;;;;;4959525;29;19922;-93
2023/08/16 11:16:30;;;;;;;3.33;2.70;;;;;;;;;;4941583;29;20150;-93
2023/08/16 11:19:04;;;;;;;3.85;2.17;;;;;;;;;;4943425;29;20054;-93
2023/08/16 11:21:34;;;;;;;7.15;2.78;;;;;;;;;;4940731;29;20055;-92
2023/08/16 11:24:05;;;;;;;4.90;2.28;;;;;;;;;;4958640;29;20039;-94
2023/08/16 11:26:38;;;;;;;2.78;2.05;;;;;;;;;;4958069;29;20055;-93
2023/08/16 11:29:07;;;;;;;3.53;2.30;;;;;;;;;;4940692;29;20039;-94
2023/08/16 11:31:36;;;;;;;4.78;2.28;;;;;;;;;;4940865;29;20051;-93
2023/08/16 11:34:08;;;;;;;3.85;2.47;;;;;;;;;;4940837;29;20047;-93
2023/08/16 11:36:36;;;;;;;;;;;;;;;;;;4957204;29;20055;-93
2023/08/16 11:39:08;;;;;;;3.13;2.15;;;;;;;;;;4926153;29;20409;-93
2023/08/16 11:41:38;;;;;;;2.45;2.20;;;;;;;;;;4940048;29;20039;-93
2023/08/16 11:44:07;;;;;;;5.60;2.20;;;;;;;;;;4939903;29;20430;-93
2023/08/16 11:46:41;;;;;;;2.88;2.45;;;;;;;;;;4941472;29;20145;-93
2023/08/16 11:49:12;;;;;;;15.63;4.40;;;;;;;;;;4958095;29;20430;-93
2023/08/16 11:51:43;;;;;;;2.55;2.17;;;;;;;;;;4957123;29;20073;-93
2023/08/16 11:54:21;;;;;;;6.72;2.35;;;;;;;;;;4959990;29;20090;-93
2023/08/16 11:56:53;;;;;;;2.47;2.28;;;;;;;;;;4957146;29;20051;-93
2023/08/16 11:59:31;;;;;;;3.20;2.00;;;;;;;;;;4924819;29;20047;-94
2023/08/16 12:02:06;;;;;;;4.13;2.00;;;;;;;;;;4941102;29;20399;-93
2023/08/16 12:04:34;;;;;;;2.53;2.13;;;;;;;;;;4956922;29;20487;-93
2023/08/16 12:07:01;;;;;;;4.60;2.72;;;;;;;;;;4939539;29;20051;-93
2023/08/16 12:09:30;;;;;;;4.97;2.53;;;;;;;;;;4939698;29;20446;-93
2023/08/16 12:12:01;;;;;;;2.03;1.63;;;;;;;;;;4956385;29;20047;-93
2023/08/16 12:14:29;;;;;;;2.90;2.20;;;;;;;;;;4939206;29;20055;-93
2023/08/16 12:16:57;;;;;;;2.15;1.98;;;;;;;;;;4939269;29;20058;-93
2023/08/16 12:19:25;;;;;;;3.15;2.40;;;;;;;;;;4955316;29;20048;-94
2023/08/16 12:21:52;;;;;;;3.25;2.15;;;;;;;;;;4956968;29;20529;-93
2023/08/16 12:24:31;;;;;;;4.03;3.05;;;;;;;;;;4940083;29;20039;-93
2023/08/16 12:27:10;;;;;;;3.15;2.15;;;;;;;;;;4938316;29;20054;-93
2023/08/16 12:29:39;;;;;;;2.60;2.40;;;;;;;;;;4938591;29;20063;-92
2023/08/16 12:32:08;;;;;;;3.63;2.47;;;;;;;;;;4939982;29;20051;-93
2023/08/16 12:34:38;;;;;;;2.40;2.20;;;;;;;;;;4956472;29;20066;-93
2023/08/16 12:37:10;;;;;;;3.78;2.58;;;;;;;;;;4938301;29;20066;-93
2023/08/16 12:39:37;;;;;;;3.00;2.22;;;;;;;;;;4939885;29;20047;-93
2023/08/16 12:42:07;;;;;;;7.32;3.15;;;;;;;;;;4939316;29;20066;-93
2023/08/16 12:44:35;;;;;;;3.58;3.20;;;;;;;;;;4957048;29;20043;-94
2023/08/16 12:47:04;;;;;;;4.38;2.50;;;;;;;;;;4955857;29;20063;-93
2023/08/16 12:49:33;;;;;;;3.30;2.83;;;;;;;;;;4940046;29;20070;-93
2023/08/16 12:52:01;;;;;;;5.38;2.50;;;;;;;;;;4923032;29;20047;-92
2023/08/16 12:54:28;;;;;;;3.40;2.42;;;;;;;;;;4957041;29;20043;-93
2023/08/16 12:56:55;;;;;;;6.15;2.75;;;;;;;;;;4942940;29;20047;-93
2023/08/16 12:59:25;;;;;;;3.67;2.55;;;;;;;;;;4961186;29;20047;-92
2023/08/16 13:01:52;;;;;;;3.53;2.83;;;;;;;;;;4947398;29;20058;-93
2023/08/16 13:04:21;;;;;;;3.70;2.67;;;;;;;;;;4946640;29;20055;-92
2023/08/16 13:06:48;;;;;;;3.20;2.90;;;;;;;;;;4927023;29;20062;-93
2023/08/16 13:09:16;;;;;;;5.53;2.80;;;;;;;;;;4945320;29;20043;-93
2023/08/16 13:11:46;;;;;;;2.85;2.60;;;;;;;;;;4942003;29;20062;-93
2023/08/16 13:14:14;;;;;;;2.92;2.63;;;;;;;;;;4927937;29;20051;-93
2023/08/16 13:16:42;;;;;;;3.83;3.33;;;;;;;;;;4942488;29;20046;-93
2023/08/16 13:19:11;;;;;;;3.63;3.13;;;;;;;;;;4925929;29;20055;-92
2023/08/16 13:21:40;;;;;;;3.10;2.40;;;;;;;;;;4926745;29;20055;-93
2023/08/16 13:24:11;;;;;;;4.93;2.72;;;;;;;;;;4942897;29;20062;-92
2023/08/16 13:26:39;;;;;;;2.88;2.33;;;;;;;;;;4942076;29;20043;-93
2023/08/16 13:29:07;;;;;;;7.28;3.00;;;;;;;;;;4943249;29;20051;-93
2023/08/16 13:31:39;;;;;;;2.90;2.60;;;;;;;;;;4961545;29;20047;-93
2023/08/16 13:34:09;;;;;;;2.38;2.17;;;;;;;;;;4928491;29;20048;-94
2023/08/16 13:36:37;;;;;;;2.67;2.33;;;;;;;;;;4944006;29;20054;-92
2023/08/16 13:39:06;;;;;;;3.17;2.88;;;;;;;;;;4921740;29;20062;-92
2023/08/16 13:41:33;;;;;;;3.47;3.17;;;;;;;;;;4945196;29;20058;-92
2023/08/16 13:44:00;;;;;;;5.70;2.92;;;;;;;;;;4962700;29;20229;-93
2023/08/16 13:46:32;;;;;;;5.80;2.85;;;;;;;;;;4945968;29;20042;-93
2023/08/16 13:49:00;;;;;;;2.92;2.65;;;;;;;;;;4946308;29;20051;-92
2023/08/16 13:51:27;;;;;;;5.18;2.75;;;;;;;;;;4946520;29;20055;-93
2023/08/16 13:53:55;;;;;;;2.63;2.42;;;;;;;;;;4945766;29;20086;-93
2023/08/16 13:56:27;;;;;;;3.47;2.40;;;;;;;;;;4953440;29;20237;-92
2023/08/16 13:58:57;;;;;;;3.40;3.10;;;;;;;;;;4944918;29;20055;-91
2023/08/16 14:01:24;;;;;;;4.03;2.97;;;;;;;;;;4948618;29;20047;-93
2023/08/16 14:03:51;;;;;;;3.38;2.78;;;;;;;;;;4949924;29;20055;-93
2023/08/16 14:06:19;;;;;;;3.00;2.67;;;;;;;;;;4947690;28;20054;-93
2023/08/16 14:08:46;;;;;;;6.00;3.72;;;;;;;;;;4950112;29;20051;-91
2023/08/16 14:11:17;;;;;;;4.22;2.67;;;;;;;;;;4955044;29;20065;-93
2023/08/16 14:13:50;;;;;;;3.15;2.70;;;;;;;;;;4948323;29;20055;-92
2023/08/16 14:16:20;;;;;;;4.72;3.22;;;;;;;;;;4933511;29;20073;-93
2023/08/16 14:18:47;;;;;;;2.60;2.40;;;;;;;;;;4927614;29;20553;-92
2023/08/16 14:21:15;;;;;;;3.50;2.83;;;;;;;;;;4944881;29;20066;-92
2023/08/16 14:23:42;;;;;;;5.10;2.70;;;;;;;;;;4943886;29;20062;-93
2023/08/16 14:26:12;;;;;;;3.08;2.35;;;;;;;;;;4925009;29;20047;-92
2023/08/16 14:28:39;;;;;;;3.92;3.45;;;;;;;;;;4926508;29;20521;-93
2023/08/16 14:31:11;;;;;;;2.95;2.70;;;;;;;;;;4944640;29;20062;-92
2023/08/16 14:33:38;;;;;;;3.50;2.65;;;;;;;;;;4948287;29;20054;-92
2023/08/16 14:36:06;;;;;;;3.70;2.80;;;;;;;;;;4942528;29;20058;-91
2023/08/16 14:38:33;;;;;;;3.40;3.10;;;;;;;;;;4960804;29;20047;-92
2023/08/16 14:41:03;;;;;;;3.75;3.03;;;;;;;;;;4926689;29;20537;-92
2023/08/16 14:43:32;;;;;;;4.97;3.13;;;;;;;;;;4952573;29;20052;-93
2023/08/16 14:46:00;;;;;;;2.92;2.53;;;;;;;;;;4942635;29;20051;-93
2023/08/16 14:48:29;;;;;;;4.45;2.90;;;;;;;;;;4932420;29;20047;-92
2023/08/16 14:50:56;;;;;;;3.08;2.80;;;;;;;;;;4923937;29;20051;-94
2023/08/16 14:53:23;;;;;;;4.90;3.13;;;;;;;;;;4958166;29;20062;-92
2023/08/16 14:55:56;;;;;;;5.63;2.72;;;;;;;;;;4942626;29;20514;-91
2023/08/16 14:58:26;;;;;;;2.83;2.30;;;;;;;;;;4922238;29;20063;-93